Melvin, Iowa
Current Conditions -  °F | °C
As of 6:35 AM on Monday 24 Nov 2014 (Local Time) from KSHL Reporting Station
Overcast Overcast  
Wind Chill:   Ceiling: 1900
Heat Index: 19°   Visibility: 10mi
Dew Point: 14°   Wind: 26mph
Humidity: 80%   Direction: 320°NW
Pressure: 29.53"   Gusts: 35mph
Location:  43.29°N, 95.61°W
Report Text: KSHL 241235Z AUTO 32023G30KT 10SM BKN019 OVC026 M07/M10 A2953 RMK AO2
Loading
Personal Weather Stations






























Interactive Weather Map New forecast layout! Learn more

10-Day Weather Forecast

Advertisements
Track Severe Weather on mobile